sensor_id;sensor_type;location;lat;lon;timestamp;temperature;humidity
49385;DHT22;36795;45.028;38.968;2022-08-19T00:00:09;26.50;75.00
49385;DHT22;36795;45.028;38.968;2022-08-19T00:02:56;26.60;75.00
49385;DHT22;36795;45.028;38.968;2022-08-19T00:05:42;26.60;75.50
49385;DHT22;36795;45.028;38.968;2022-08-19T00:08:28;26.60;74.80
49385;DHT22;36795;45.028;38.968;2022-08-19T00:11:14;26.70;74.60
49385;DHT22;36795;45.028;38.968;2022-08-19T00:14:01;26.60;74.50
49385;DHT22;36795;45.028;38.968;2022-08-19T00:16:47;26.60;74.60
49385;DHT22;36795;45.028;38.968;2022-08-19T00:19:35;26.60;74.70
49385;DHT22;36795;45.028;38.968;2022-08-19T00:22:22;26.60;74.70
49385;DHT22;36795;45.028;38.968;2022-08-19T00:25:08;26.60;74.90
49385;DHT22;36795;45.028;38.968;2022-08-19T00:27:54;26.50;75.00
49385;DHT22;36795;45.028;38.968;2022-08-19T00:30:40;26.60;75.00
49385;DHT22;36795;45.028;38.968;2022-08-19T00:33:26;26.60;74.90
49385;DHT22;36795;45.028;38.968;2022-08-19T00:36:12;26.60;74.80
49385;DHT22;36795;45.028;38.968;2022-08-19T00:38:59;26.60;74.90
49385;DHT22;36795;45.028;38.968;2022-08-19T00:41:46;26.50;75.10
49385;DHT22;36795;45.028;38.968;2022-08-19T00:44:35;26.50;75.10
49385;DHT22;36795;45.028;38.968;2022-08-19T00:47:21;26.50;75.00
49385;DHT22;36795;45.028;38.968;2022-08-19T00:50:09;26.50;75.00
49385;DHT22;36795;45.028;38.968;2022-08-19T00:52:56;26.60;75.10
49385;DHT22;36795;45.028;38.968;2022-08-19T00:55:46;26.50;75.10
49385;DHT22;36795;45.028;38.968;2022-08-19T00:58:34;26.60;75.20
49385;DHT22;36795;45.028;38.968;2022-08-19T01:01:20;26.60;75.20
49385;DHT22;36795;45.028;38.968;2022-08-19T01:04:07;26.60;75.20
49385;DHT22;36795;45.028;38.968;2022-08-19T01:06:53;26.50;75.30
49385;DHT22;36795;45.028;38.968;2022-08-19T01:09:39;26.50;75.50
49385;DHT22;36795;45.028;38.968;2022-08-19T01:12:25;26.50;75.60
49385;DHT22;36795;45.028;38.968;2022-08-19T01:15:16;26.40;75.60
49385;DHT22;36795;45.028;38.968;2022-08-19T01:18:06;26.40;75.90
49385;DHT22;36795;45.028;38.968;2022-08-19T01:20:56;26.40;76.00
49385;DHT22;36795;45.028;38.968;2022-08-19T01:23:44;26.40;75.90
49385;DHT22;36795;45.028;38.968;2022-08-19T01:26:30;26.40;75.90
49385;DHT22;36795;45.028;38.968;2022-08-19T01:29:16;26.40;76.00
49385;DHT22;36795;45.028;38.968;2022-08-19T01:32:03;26.40;76.20
49385;DHT22;36795;45.028;38.968;2022-08-19T01:34:49;26.30;76.20
49385;DHT22;36795;45.028;38.968;2022-08-19T01:37:53;26.30;76.30
49385;DHT22;36795;45.028;38.968;2022-08-19T01:40:39;26.30;76.30
49385;DHT22;36795;45.028;38.968;2022-08-19T01:43:25;26.20;76.30
49385;DHT22;36795;45.028;38.968;2022-08-19T01:46:12;26.00;76.70
49385;DHT22;36795;45.028;38.968;2022-08-19T01:48:58;26.00;76.70
49385;DHT22;36795;45.028;38.968;2022-08-19T01:51:45;26.10;76.70
49385;DHT22;36795;45.028;38.968;2022-08-19T01:54:32;26.00;76.90
49385;DHT22;36795;45.028;38.968;2022-08-19T01:57:18;25.90;76.90
49385;DHT22;36795;45.028;38.968;2022-08-19T02:00:09;25.90;77.10
49385;DHT22;36795;45.028;38.968;2022-08-19T02:02:56;25.80;77.30
49385;DHT22;36795;45.028;38.968;2022-08-19T02:05:44;25.80;77.50
49385;DHT22;36795;45.028;38.968;2022-08-19T02:08:32;25.80;77.70
49385;DHT22;36795;45.028;38.968;2022-08-19T02:11:25;25.80;77.70
49385;DHT22;36795;45.028;38.968;2022-08-19T02:14:11;25.90;77.70
49385;DHT22;36795;45.028;38.968;2022-08-19T02:16:57;25.80;77.80
49385;DHT22;36795;45.028;38.968;2022-08-19T02:19:43;25.80;77.70
49385;DHT22;36795;45.028;38.968;2022-08-19T02:22:29;25.90;77.80
49385;DHT22;36795;45.028;38.968;2022-08-19T02:25:15;25.90;77.70
49385;DHT22;36795;45.028;38.968;2022-08-19T02:28:01;25.90;77.70
49385;DHT22;36795;45.028;38.968;2022-08-19T02:30:47;25.90;77.80
49385;DHT22;36795;45.028;38.968;2022-08-19T02:33:34;25.80;77.70
49385;DHT22;36795;45.028;38.968;2022-08-19T02:36:19;25.90;77.70
49385;DHT22;36795;45.028;38.968;2022-08-19T02:39:06;25.90;77.50
49385;DHT22;36795;45.028;38.968;2022-08-19T02:41:52;26.00;77.40
49385;DHT22;36795;45.028;38.968;2022-08-19T02:44:38;25.90;77.30
49385;DHT22;36795;45.028;38.968;2022-08-19T02:47:24;25.90;77.40
49385;DHT22;36795;45.028;38.968;2022-08-19T02:50:11;25.80;77.40
49385;DHT22;36795;45.028;38.968;2022-08-19T02:52:57;25.60;77.40
49385;DHT22;36795;45.028;38.968;2022-08-19T02:55:45;25.50;77.40
49385;DHT22;36795;45.028;38.968;2022-08-19T02:58:32;25.50;77.60
49385;DHT22;36795;45.028;38.968;2022-08-19T03:01:24;25.50;78.10
49385;DHT22;36795;45.028;38.968;2022-08-19T03:04:12;25.50;77.40
49385;DHT22;36795;45.028;38.968;2022-08-19T03:06:58;25.50;77.20
49385;DHT22;36795;45.028;38.968;2022-08-19T03:09:45;25.50;77.20
49385;DHT22;36795;45.028;38.968;2022-08-19T03:12:34;25.50;77.10
49385;DHT22;36795;45.028;38.968;2022-08-19T03:15:20;25.50;77.00
49385;DHT22;36795;45.028;38.968;2022-08-19T03:18:07;25.50;76.70
49385;DHT22;36795;45.028;38.968;2022-08-19T03:20:53;25.30;76.80
49385;DHT22;36795;45.028;38.968;2022-08-19T03:23:40;25.10;77.30
49385;DHT22;36795;45.028;38.968;2022-08-19T03:26:26;25.10;77.50
49385;DHT22;36795;45.028;38.968;2022-08-19T03:29:14;25.20;77.50
49385;DHT22;36795;45.028;38.968;2022-08-19T03:32:04;25.20;77.40
49385;DHT22;36795;45.028;38.968;2022-08-19T03:34:50;25.30;77.40
49385;DHT22;36795;45.028;38.968;2022-08-19T03:37:37;25.40;77.00
49385;DHT22;36795;45.028;38.968;2022-08-19T03:40:24;25.60;76.60
49385;DHT22;36795;45.028;38.968;2022-08-19T03:43:10;25.60;76.10
49385;DHT22;36795;45.028;38.968;2022-08-19T03:46:02;25.50;76.10
49385;DHT22;36795;45.028;38.968;2022-08-19T03:48:52;25.50;76.40
49385;DHT22;36795;45.028;38.968;2022-08-19T03:51:40;25.50;76.20
49385;DHT22;36795;45.028;38.968;2022-08-19T03:54:27;25.50;76.10
49385;DHT22;36795;45.028;38.968;2022-08-19T03:57:13;25.50;76.10
49385;DHT22;36795;45.028;38.968;2022-08-19T03:59:59;25.50;76.10
49385;DHT22;36795;45.028;38.968;2022-08-19T04:02:45;25.50;76.20
49385;DHT22;36795;45.028;38.968;2022-08-19T04:05:31;25.50;76.00
49385;DHT22;36795;45.028;38.968;2022-08-19T04:08:17;25.60;75.90
49385;DHT22;36795;45.028;38.968;2022-08-19T04:11:11;25.80;75.60
49385;DHT22;36795;45.028;38.968;2022-08-19T04:13:57;25.90;75.30
49385;DHT22;36795;45.028;38.968;2022-08-19T04:16:44;26.10;74.90
49385;DHT22;36795;45.028;38.968;2022-08-19T04:19:31;26.10;74.70
49385;DHT22;36795;45.028;38.968;2022-08-19T04:22:18;26.10;74.70
49385;DHT22;36795;45.028;38.968;2022-08-19T04:25:04;26.10;74.60
49385;DHT22;36795;45.028;38.968;2022-08-19T04:27:50;26.10;74.50
49385;DHT22;36795;45.028;38.968;2022-08-19T04:30:44;26.10;74.50
49385;DHT22;36795;45.028;38.968;2022-08-19T04:33:31;26.30;74.50
49385;DHT22;36795;45.028;38.968;2022-08-19T04:36:20;26.40;74.60
49385;DHT22;36795;45.028;38.968;2022-08-19T04:39:10;26.50;73.80
49385;DHT22;36795;45.028;38.968;2022-08-19T04:41:56;26.70;73.50
49385;DHT22;36795;45.028;38.968;2022-08-19T04:45:00;26.80;72.70
49385;DHT22;36795;45.028;38.968;2022-08-19T04:47:48;26.80;73.20
49385;DHT22;36795;45.028;38.968;2022-08-19T04:50:34;26.80;72.50
49385;DHT22;36795;45.028;38.968;2022-08-19T04:53:21;26.90;72.40
49385;DHT22;36795;45.028;38.968;2022-08-19T04:56:10;26.90;72.30
49385;DHT22;36795;45.028;38.968;2022-08-19T04:58:57;26.90;72.30
49385;DHT22;36795;45.028;38.968;2022-08-19T05:01:43;26.90;72.10
49385;DHT22;36795;45.028;38.968;2022-08-19T05:04:29;27.00;72.10
49385;DHT22;36795;45.028;38.968;2022-08-19T05:07:19;27.10;71.70
49385;DHT22;36795;45.028;38.968;2022-08-19T05:10:05;27.20;71.30
49385;DHT22;36795;45.028;38.968;2022-08-19T05:12:52;27.40;70.90
49385;DHT22;36795;45.028;38.968;2022-08-19T05:15:37;27.50;70.60
49385;DHT22;36795;45.028;38.968;2022-08-19T05:18:24;27.60;70.50
49385;DHT22;36795;45.028;38.968;2022-08-19T05:21:29;27.60;70.40
49385;DHT22;36795;45.028;38.968;2022-08-19T05:24:34;27.70;70.30
49385;DHT22;36795;45.028;38.968;2022-08-19T05:27:19;27.80;69.80
49385;DHT22;36795;45.028;38.968;2022-08-19T05:30:06;27.90;69.20
49385;DHT22;36795;45.028;38.968;2022-08-19T05:32:52;28.00;68.90
49385;DHT22;36795;45.028;38.968;2022-08-19T05:35:40;28.10;68.70
49385;DHT22;36795;45.028;38.968;2022-08-19T05:38:26;28.10;68.00
49385;DHT22;36795;45.028;38.968;2022-08-19T05:41:14;28.00;67.70
49385;DHT22;36795;45.028;38.968;2022-08-19T05:44:04;27.90;67.80
49385;DHT22;36795;45.028;38.968;2022-08-19T05:46:54;28.20;67.40
49385;DHT22;36795;45.028;38.968;2022-08-19T05:49:41;28.30;66.80
49385;DHT22;36795;45.028;38.968;2022-08-19T05:52:27;28.50;66.50
49385;DHT22;36795;45.028;38.968;2022-08-19T05:55:13;28.50;66.10
49385;DHT22;36795;45.028;38.968;2022-08-19T05:57:59;28.50;65.70
49385;DHT22;36795;45.028;38.968;2022-08-19T06:00:47;28.60;65.30
49385;DHT22;36795;45.028;38.968;2022-08-19T06:03:34;28.70;65.10
49385;DHT22;36795;45.028;38.968;2022-08-19T06:06:21;28.80;65.10
49385;DHT22;36795;45.028;38.968;2022-08-19T06:09:08;28.90;64.60
49385;DHT22;36795;45.028;38.968;2022-08-19T06:11:58;29.00;64.60
49385;DHT22;36795;45.028;38.968;2022-08-19T06:14:45;29.10;64.20
49385;DHT22;36795;45.028;38.968;2022-08-19T06:17:31;29.10;63.80
49385;DHT22;36795;45.028;38.968;2022-08-19T06:20:17;29.10;63.80
49385;DHT22;36795;45.028;38.968;2022-08-19T06:23:04;29.20;64.20
49385;DHT22;36795;45.028;38.968;2022-08-19T06:25:51;29.30;64.20
49385;DHT22;36795;45.028;38.968;2022-08-19T06:28:36;29.40;64.00
49385;DHT22;36795;45.028;38.968;2022-08-19T06:31:28;29.40;63.90
49385;DHT22;36795;45.028;38.968;2022-08-19T06:34:15;29.50;63.80
49385;DHT22;36795;45.028;38.968;2022-08-19T06:37:02;29.60;63.80
49385;DHT22;36795;45.028;38.968;2022-08-19T06:39:48;29.60;63.30
49385;DHT22;36795;45.028;38.968;2022-08-19T06:42:35;29.80;63.10
49385;DHT22;36795;45.028;38.968;2022-08-19T06:45:24;29.90;62.80
49385;DHT22;36795;45.028;38.968;2022-08-19T06:48:10;29.80;62.40
49385;DHT22;36795;45.028;38.968;2022-08-19T06:50:56;29.80;63.30
49385;DHT22;36795;45.028;38.968;2022-08-19T06:53:42;30.00;62.30
49385;DHT22;36795;45.028;38.968;2022-08-19T06:56:33;30.10;61.50
49385;DHT22;36795;45.028;38.968;2022-08-19T06:59:22;30.20;61.60
49385;DHT22;36795;45.028;38.968;2022-08-19T07:02:08;30.20;61.10
49385;DHT22;36795;45.028;38.968;2022-08-19T07:04:55;30.30;61.40
49385;DHT22;36795;45.028;38.968;2022-08-19T07:07:43;30.40;60.90
49385;DHT22;36795;45.028;38.968;2022-08-19T07:10:29;30.50;60.00
49385;DHT22;36795;45.028;38.968;2022-08-19T07:13:17;30.60;60.00
49385;DHT22;36795;45.028;38.968;2022-08-19T07:16:06;30.60;59.70
49385;DHT22;36795;45.028;38.968;2022-08-19T07:18:53;30.60;58.80
49385;DHT22;36795;45.028;38.968;2022-08-19T07:21:39;30.70;59.40
49385;DHT22;36795;45.028;38.968;2022-08-19T07:24:26;31.10;58.50
49385;DHT22;36795;45.028;38.968;2022-08-19T07:27:13;31.60;57.60
49385;DHT22;36795;45.028;38.968;2022-08-19T07:29:59;32.20;56.60
49385;DHT22;36795;45.028;38.968;2022-08-19T07:32:46;32.40;56.40
49385;DHT22;36795;45.028;38.968;2022-08-19T07:35:32;32.30;57.00
49385;DHT22;36795;45.028;38.968;2022-08-19T07:38:18;32.30;57.60
49385;DHT22;36795;45.028;38.968;2022-08-19T07:41:04;32.40;57.20
49385;DHT22;36795;45.028;38.968;2022-08-19T07:43:51;32.40;56.80
49385;DHT22;36795;45.028;38.968;2022-08-19T07:46:40;32.50;56.20
49385;DHT22;36795;45.028;38.968;2022-08-19T07:49:27;32.50;55.10
49385;DHT22;36795;45.028;38.968;2022-08-19T07:52:12;32.50;54.10
49385;DHT22;36795;45.028;38.968;2022-08-19T07:54:58;32.40;53.30
49385;DHT22;36795;45.028;38.968;2022-08-19T07:57:48;32.30;53.30
49385;DHT22;36795;45.028;38.968;2022-08-19T08:00:34;32.40;53.00
49385;DHT22;36795;45.028;38.968;2022-08-19T08:03:22;32.50;52.70
49385;DHT22;36795;45.028;38.968;2022-08-19T08:06:31;32.60;52.70
49385;DHT22;36795;45.028;38.968;2022-08-19T08:09:39;32.60;52.70
49385;DHT22;36795;45.028;38.968;2022-08-19T08:12:28;32.60;52.90
49385;DHT22;36795;45.028;38.968;2022-08-19T08:15:16;32.70;53.40
49385;DHT22;36795;45.028;38.968;2022-08-19T08:18:02;32.80;53.80
49385;DHT22;36795;45.028;38.968;2022-08-19T08:20:48;32.90;54.00
49385;DHT22;36795;45.028;38.968;2022-08-19T08:23:35;32.90;54.40
49385;DHT22;36795;45.028;38.968;2022-08-19T08:26:21;33.10;53.80
49385;DHT22;36795;45.028;38.968;2022-08-19T08:29:07;33.20;53.70
49385;DHT22;36795;45.028;38.968;2022-08-19T08:31:57;33.10;53.20
49385;DHT22;36795;45.028;38.968;2022-08-19T08:34:43;33.20;53.20
49385;DHT22;36795;45.028;38.968;2022-08-19T08:37:30;33.30;52.80
49385;DHT22;36795;45.028;38.968;2022-08-19T08:40:45;33.50;52.70
49385;DHT22;36795;45.028;38.968;2022-08-19T08:43:39;33.90;52.20
49385;DHT22;36795;45.028;38.968;2022-08-19T08:46:45;34.50;51.60
49385;DHT22;36795;45.028;38.968;2022-08-19T08:49:47;35.20;50.70
49385;DHT22;36795;45.028;38.968;2022-08-19T08:52:37;35.80;49.80
49385;DHT22;36795;45.028;38.968;2022-08-19T08:55:29;36.30;49.30
49385;DHT22;36795;45.028;38.968;2022-08-19T08:58:28;36.50;49.00
49385;DHT22;36795;45.028;38.968;2022-08-19T09:01:17;37.00;48.60
49385;DHT22;36795;45.028;38.968;2022-08-19T09:04:05;37.40;47.50
49385;DHT22;36795;45.028;38.968;2022-08-19T09:07:12;38.20;46.20
49385;DHT22;36795;45.028;38.968;2022-08-19T09:10:21;39.50;44.10
49385;DHT22;36795;45.028;38.968;2022-08-19T09:16:21;39.80;42.20
49385;DHT22;36795;45.028;38.968;2022-08-19T09:19:12;39.40;43.00
49385;DHT22;36795;45.028;38.968;2022-08-19T09:21:58;39.20;43.50
49385;DHT22;36795;45.028;38.968;2022-08-19T09:24:47;38.90;43.10
49385;DHT22;36795;45.028;38.968;2022-08-19T09:27:32;39.10;42.70
49385;DHT22;36795;45.028;38.968;2022-08-19T09:30:24;39.40;42.30
49385;DHT22;36795;45.028;38.968;2022-08-19T09:33:10;39.70;41.80
49385;DHT22;36795;45.028;38.968;2022-08-19T09:36:08;40.50;41.00
49385;DHT22;36795;45.028;38.968;2022-08-19T09:38:55;40.90;40.00
49385;DHT22;36795;45.028;38.968;2022-08-19T09:41:42;40.00;40.10
49385;DHT22;36795;45.028;38.968;2022-08-19T09:44:28;38.40;42.30
49385;DHT22;36795;45.028;38.968;2022-08-19T09:47:14;37.00;44.20
49385;DHT22;36795;45.028;38.968;2022-08-19T09:50:01;35.80;45.90
49385;DHT22;36795;45.028;38.968;2022-08-19T09:52:47;34.90;47.50
49385;DHT22;36795;45.028;38.968;2022-08-19T09:55:33;34.10;48.70
49385;DHT22;36795;45.028;38.968;2022-08-19T09:58:19;33.50;49.70
49385;DHT22;36795;45.028;38.968;2022-08-19T10:01:06;33.40;50.60
49385;DHT22;36795;45.028;38.968;2022-08-19T10:03:55;33.30;51.30
49385;DHT22;36795;45.028;38.968;2022-08-19T10:06:41;33.20;51.30
49385;DHT22;36795;45.028;38.968;2022-08-19T10:09:28;32.90;51.40
49385;DHT22;36795;45.028;38.968;2022-08-19T10:12:14;32.70;51.90
49385;DHT22;36795;45.028;38.968;2022-08-19T10:15:01;32.60;52.20
49385;DHT22;36795;45.028;38.968;2022-08-19T10:17:47;32.60;52.50
49385;DHT22;36795;45.028;38.968;2022-08-19T10:20:33;32.50;52.40
49385;DHT22;36795;45.028;38.968;2022-08-19T10:23:21;32.30;52.70
49385;DHT22;36795;45.028;38.968;2022-08-19T10:26:07;32.10;53.00
49385;DHT22;36795;45.028;38.968;2022-08-19T10:28:54;32.10;53.30
49385;DHT22;36795;45.028;38.968;2022-08-19T10:31:41;32.20;53.20
49385;DHT22;36795;45.028;38.968;2022-08-19T10:34:28;32.30;53.00
49385;DHT22;36795;45.028;38.968;2022-08-19T10:37:18;32.30;52.70
49385;DHT22;36795;45.028;38.968;2022-08-19T10:40:06;32.20;52.90
49385;DHT22;36795;45.028;38.968;2022-08-19T10:42:54;32.20;53.00
49385;DHT22;36795;45.028;38.968;2022-08-19T10:45:41;32.20;53.20
49385;DHT22;36795;45.028;38.968;2022-08-19T10:48:27;32.30;53.00
49385;DHT22;36795;45.028;38.968;2022-08-19T10:51:14;32.20;52.70
49385;DHT22;36795;45.028;38.968;2022-08-19T10:54:20;32.30;52.70
49385;DHT22;36795;45.028;38.968;2022-08-19T10:57:06;32.40;52.80
49385;DHT22;36795;45.028;38.968;2022-08-19T10:59:52;32.60;52.60
49385;DHT22;36795;45.028;38.968;2022-08-19T11:02:38;32.60;52.40
49385;DHT22;36795;45.028;38.968;2022-08-19T11:05:24;32.80;53.10
49385;DHT22;36795;45.028;38.968;2022-08-19T11:08:10;32.90;52.10
49385;DHT22;36795;45.028;38.968;2022-08-19T11:11:00;33.20;51.10
49385;DHT22;36795;45.028;38.968;2022-08-19T11:13:47;33.40;50.80
49385;DHT22;36795;45.028;38.968;2022-08-19T11:16:35;33.80;50.20
49385;DHT22;36795;45.028;38.968;2022-08-19T11:19:23;34.10;49.40
49385;DHT22;36795;45.028;38.968;2022-08-19T11:22:09;34.10;48.70
49385;DHT22;36795;45.028;38.968;2022-08-19T11:24:55;34.40;48.40
49385;DHT22;36795;45.028;38.968;2022-08-19T11:27:42;34.70;47.90
49385;DHT22;36795;45.028;38.968;2022-08-19T11:30:30;35.00;46.80
49385;DHT22;36795;45.028;38.968;2022-08-19T11:33:16;35.00;46.50
49385;DHT22;36795;45.028;38.968;2022-08-19T11:36:02;35.20;45.90
49385;DHT22;36795;45.028;38.968;2022-08-19T11:38:49;35.00;45.80
49385;DHT22;36795;45.028;38.968;2022-08-19T11:41:35;34.80;46.20
49385;DHT22;36795;45.028;38.968;2022-08-19T11:44:22;35.00;46.50
49385;DHT22;36795;45.028;38.968;2022-08-19T11:47:07;35.50;45.60
49385;DHT22;36795;45.028;38.968;2022-08-19T11:49:54;36.00;44.20
49385;DHT22;36795;45.028;38.968;2022-08-19T11:52:40;36.20;43.60
49385;DHT22;36795;45.028;38.968;2022-08-19T11:55:26;36.90;42.80
49385;DHT22;36795;45.028;38.968;2022-08-19T11:58:13;37.60;41.80
49385;DHT22;36795;45.028;38.968;2022-08-19T12:01:00;38.10;41.30
49385;DHT22;36795;45.028;38.968;2022-08-19T12:03:49;38.00;41.30
49385;DHT22;36795;45.028;38.968;2022-08-19T12:06:39;38.00;41.80
49385;DHT22;36795;45.028;38.968;2022-08-19T12:09:25;37.60;41.90
49385;DHT22;36795;45.028;38.968;2022-08-19T12:12:11;37.60;42.10
49385;DHT22;36795;45.028;38.968;2022-08-19T12:14:58;37.40;42.40
49385;DHT22;36795;45.028;38.968;2022-08-19T12:17:44;37.50;42.10
49385;DHT22;36795;45.028;38.968;2022-08-19T12:20:33;37.10;42.10
49385;DHT22;36795;45.028;38.968;2022-08-19T12:23:19;37.00;42.30
49385;DHT22;36795;45.028;38.968;2022-08-19T12:26:06;36.60;42.80
49385;DHT22;36795;45.028;38.968;2022-08-19T12:28:52;36.40;43.10
49385;DHT22;36795;45.028;38.968;2022-08-19T12:31:39;36.30;43.20
49385;DHT22;36795;45.028;38.968;2022-08-19T12:34:25;36.20;43.10
49385;DHT22;36795;45.028;38.968;2022-08-19T12:37:12;35.90;43.40
49385;DHT22;36795;45.028;38.968;2022-08-19T12:39:58;36.00;44.00
49385;DHT22;36795;45.028;38.968;2022-08-19T12:42:45;36.20;43.40
49385;DHT22;36795;45.028;38.968;2022-08-19T12:45:30;36.30;43.30
49385;DHT22;36795;45.028;38.968;2022-08-19T12:48:17;36.20;43.40
49385;DHT22;36795;45.028;38.968;2022-08-19T12:51:11;36.00;43.70
49385;DHT22;36795;45.028;38.968;2022-08-19T12:53:57;35.80;44.00
49385;DHT22;36795;45.028;38.968;2022-08-19T12:56:43;35.70;44.10
49385;DHT22;36795;45.028;38.968;2022-08-19T12:59:30;35.50;43.90
49385;DHT22;36795;45.028;38.968;2022-08-19T13:02:16;35.50;44.40
49385;DHT22;36795;45.028;38.968;2022-08-19T13:05:03;35.50;44.40
49385;DHT22;36795;45.028;38.968;2022-08-19T13:07:51;35.60;44.30
49385;DHT22;36795;45.028;38.968;2022-08-19T13:10:38;35.70;44.40
49385;DHT22;36795;45.028;38.968;2022-08-19T13:13:24;35.80;44.00
49385;DHT22;36795;45.028;38.968;2022-08-19T13:16:13;35.60;44.00
49385;DHT22;36795;45.028;38.968;2022-08-19T13:18:58;35.60;44.20
49385;DHT22;36795;45.028;38.968;2022-08-19T13:21:45;35.40;44.30
49385;DHT22;36795;45.028;38.968;2022-08-19T13:24:34;35.10;44.90
49385;DHT22;36795;45.028;38.968;2022-08-19T13:27:22;35.30;44.50
49385;DHT22;36795;45.028;38.968;2022-08-19T13:30:10;35.30;44.10
49385;DHT22;36795;45.028;38.968;2022-08-19T13:33:15;35.40;44.30
49385;DHT22;36795;45.028;38.968;2022-08-19T13:36:02;35.60;43.60
49385;DHT22;36795;45.028;38.968;2022-08-19T13:38:50;35.60;43.50
49385;DHT22;36795;45.028;38.968;2022-08-19T13:41:42;35.30;43.50
49385;DHT22;36795;45.028;38.968;2022-08-19T13:44:29;35.10;43.80
49385;DHT22;36795;45.028;38.968;2022-08-19T13:47:15;35.10;43.60
49385;DHT22;36795;45.028;38.968;2022-08-19T13:50:05;35.10;43.70
49385;DHT22;36795;45.028;38.968;2022-08-19T13:52:51;34.90;43.80
49385;DHT22;36795;45.028;38.968;2022-08-19T13:55:38;34.60;43.90
49385;DHT22;36795;45.028;38.968;2022-08-19T13:58:24;34.30;44.40
49385;DHT22;36795;45.028;38.968;2022-08-19T14:01:10;34.10;44.70
49385;DHT22;36795;45.028;38.968;2022-08-19T14:03:57;33.90;45.00
49385;DHT22;36795;45.028;38.968;2022-08-19T14:06:43;33.70;45.40
49385;DHT22;36795;45.028;38.968;2022-08-19T14:09:29;33.70;45.70
49385;DHT22;36795;45.028;38.968;2022-08-19T14:12:19;33.70;45.80
49385;DHT22;36795;45.028;38.968;2022-08-19T14:15:09;33.80;45.80
49385;DHT22;36795;45.028;38.968;2022-08-19T14:17:55;34.20;45.30
49385;DHT22;36795;45.028;38.968;2022-08-19T14:20:42;34.40;45.10
49385;DHT22;36795;45.028;38.968;2022-08-19T14:23:29;34.20;45.20
49385;DHT22;36795;45.028;38.968;2022-08-19T14:26:17;33.90;45.50
49385;DHT22;36795;45.028;38.968;2022-08-19T14:29:02;33.70;46.00
49385;DHT22;36795;45.028;38.968;2022-08-19T14:31:48;33.50;46.30
49385;DHT22;36795;45.028;38.968;2022-08-19T14:34:34;33.40;46.20
49385;DHT22;36795;45.028;38.968;2022-08-19T14:37:23;33.30;45.80
49385;DHT22;36795;45.028;38.968;2022-08-19T14:40:09;33.10;45.60
49385;DHT22;36795;45.028;38.968;2022-08-19T14:42:58;32.90;45.70
49385;DHT22;36795;45.028;38.968;2022-08-19T14:45:46;32.90;45.70
49385;DHT22;36795;45.028;38.968;2022-08-19T14:48:32;32.80;45.90
49385;DHT22;36795;45.028;38.968;2022-08-19T14:51:19;32.70;45.90
49385;DHT22;36795;45.028;38.968;2022-08-19T14:54:05;32.60;46.20
49385;DHT22;36795;45.028;38.968;2022-08-19T14:56:51;32.60;46.50
49385;DHT22;36795;45.028;38.968;2022-08-19T14:59:37;32.40;46.80
49385;DHT22;36795;45.028;38.968;2022-08-19T15:02:24;32.40;47.20
49385;DHT22;36795;45.028;38.968;2022-08-19T15:05:10;32.30;47.50
49385;DHT22;36795;45.028;38.968;2022-08-19T15:07:57;32.20;47.80
49385;DHT22;36795;45.028;38.968;2022-08-19T15:10:43;32.20;48.00
49385;DHT22;36795;45.028;38.968;2022-08-19T15:13:29;32.20;48.20
49385;DHT22;36795;45.028;38.968;2022-08-19T15:16:16;32.10;48.60
49385;DHT22;36795;45.028;38.968;2022-08-19T15:19:03;31.90;48.80
49385;DHT22;36795;45.028;38.968;2022-08-19T15:21:49;31.90;49.20
49385;DHT22;36795;45.028;38.968;2022-08-19T15:24:35;31.80;49.50
49385;DHT22;36795;45.028;38.968;2022-08-19T15:27:23;31.80;49.70
49385;DHT22;36795;45.028;38.968;2022-08-19T15:30:10;31.80;50.00
49385;DHT22;36795;45.028;38.968;2022-08-19T15:32:57;31.70;50.20
49385;DHT22;36795;45.028;38.968;2022-08-19T15:35:43;31.60;50.30
49385;DHT22;36795;45.028;38.968;2022-08-19T15:38:30;31.70;50.50
49385;DHT22;36795;45.028;38.968;2022-08-19T15:41:21;31.60;50.60
49385;DHT22;36795;45.028;38.968;2022-08-19T15:44:11;31.60;50.70
49385;DHT22;36795;45.028;38.968;2022-08-19T15:46:57;31.60;50.80
49385;DHT22;36795;45.028;38.968;2022-08-19T15:49:44;31.60;50.90
49385;DHT22;36795;45.028;38.968;2022-08-19T15:52:29;31.50;51.00
49385;DHT22;36795;45.028;38.968;2022-08-19T15:55:25;31.40;51.10
49385;DHT22;36795;45.028;38.968;2022-08-19T15:58:15;31.40;51.30
49385;DHT22;36795;45.028;38.968;2022-08-19T16:01:19;31.30;51.60
49385;DHT22;36795;45.028;38.968;2022-08-19T16:04:25;31.30;51.80
49385;DHT22;36795;45.028;38.968;2022-08-19T16:07:29;31.30;51.90
49385;DHT22;36795;45.028;38.968;2022-08-19T16:10:15;31.20;52.10
49385;DHT22;36795;45.028;38.968;2022-08-19T16:13:01;31.10;52.10
49385;DHT22;36795;45.028;38.968;2022-08-19T16:15:48;31.10;52.20
49385;DHT22;36795;45.028;38.968;2022-08-19T16:18:34;31.10;52.20
49385;DHT22;36795;45.028;38.968;2022-08-19T16:21:25;31.00;52.10
49385;DHT22;36795;45.028;38.968;2022-08-19T16:24:14;31.00;52.10
49385;DHT22;36795;45.028;38.968;2022-08-19T16:27:00;30.90;52.10
49385;DHT22;36795;45.028;38.968;2022-08-19T16:29:47;30.90;52.30
49385;DHT22;36795;45.028;38.968;2022-08-19T16:32:34;30.90;52.40
49385;DHT22;36795;45.028;38.968;2022-08-19T16:35:19;30.80;52.50
49385;DHT22;36795;45.028;38.968;2022-08-19T16:38:06;30.80;52.60
49385;DHT22;36795;45.028;38.968;2022-08-19T16:40:52;30.80;52.80
49385;DHT22;36795;45.028;38.968;2022-08-19T16:43:42;30.80;52.90
49385;DHT22;36795;45.028;38.968;2022-08-19T16:46:28;30.80;53.10
49385;DHT22;36795;45.028;38.968;2022-08-19T16:49:15;30.70;53.30
49385;DHT22;36795;45.028;38.968;2022-08-19T16:52:01;30.60;53.40
49385;DHT22;36795;45.028;38.968;2022-08-19T16:54:47;30.60;53.80
49385;DHT22;36795;45.028;38.968;2022-08-19T16:57:33;30.60;53.90
49385;DHT22;36795;45.028;38.968;2022-08-19T17:00:19;30.50;53.90
49385;DHT22;36795;45.028;38.968;2022-08-19T17:03:07;30.60;54.20
49385;DHT22;36795;45.028;38.968;2022-08-19T17:05:57;30.50;54.30
49385;DHT22;36795;45.028;38.968;2022-08-19T17:08:49;30.50;54.40
49385;DHT22;36795;45.028;38.968;2022-08-19T17:11:36;30.50;54.50
49385;DHT22;36795;45.028;38.968;2022-08-19T17:14:22;30.40;54.60
49385;DHT22;36795;45.028;38.968;2022-08-19T17:17:09;30.40;54.90
49385;DHT22;36795;45.028;38.968;2022-08-19T17:19:59;30.30;55.20
49385;DHT22;36795;45.028;38.968;2022-08-19T17:22:46;30.20;55.40
49385;DHT22;36795;45.028;38.968;2022-08-19T17:25:32;30.20;55.60